Time;durP1;ratioP1;P1;durP2;ratioP2;P2;SDS_P1;SDS_P2;PMS_P1;PMS_P2;Temp;Humidity;BMP_temperature;BMP_pressure;BME280_temperature;BME280_humidity;BME280_pressure;Samples;Min_cycle;Max_cycle;Signal;HPM_P1;HPM_P2
2021/11/24 00:01:50;;;;;;;29.80;15.65;;;;;;;5.39;100.00;102908.97;5024206;28;20049;-74
2021/11/24 00:04:18;;;;;;;29.83;17.25;;;;;;;5.39;100.00;102908.97;5028324;28;20131;-73
2021/11/24 00:06:46;;;;;;;30.67;16.08;;;;;;;5.39;100.00;102915.16;5022510;28;20053;-74
2021/11/24 00:09:14;;;;;;;28.77;16.77;;;;;;;5.40;100.00;102913.41;5026764;28;20086;-74
2021/11/24 00:11:42;;;;;;;29.75;17.75;;;;;;;5.41;100.00;102916.09;5022632;28;20057;-67
2021/11/24 00:14:12;;;;;;;31.70;17.08;;;;;;;5.43;100.00;102911.72;5029781;28;20052;-68
2021/11/24 00:16:40;;;;;;;28.95;16.60;;;;;;;5.45;100.00;102905.56;5025767;28;20057;-67
2021/11/24 00:19:08;;;;;;;30.88;17.05;;;;;;;5.42;100.00;102899.34;5027896;28;20128;-67
2021/11/24 00:21:36;;;;;;;31.58;17.27;;;;;;;5.41;100.00;102897.56;5021927;28;20544;-67
2021/11/24 00:24:04;;;;;;;29.55;16.83;;;;;;;5.42;100.00;102903.75;5030492;28;20069;-67
2021/11/24 00:26:33;;;;;;;33.60;16.33;;;;;;;5.41;100.00;102899.31;5025451;28;20149;-67
2021/11/24 00:29:01;;;;;;;32.22;18.02;;;;;;;5.43;100.00;102908.16;5027981;28;20613;-67
2021/11/24 00:31:30;;;;;;;30.13;16.58;;;;;;;5.43;100.00;102901.13;5019234;28;20140;-67
2021/11/24 00:34:00;;;;;;;30.15;16.63;;;;;;;5.40;100.00;102903.72;5028995;28;20057;-67
2021/11/24 00:36:28;;;;;;;30.23;17.42;;;;;;;5.41;100.00;102900.22;5023429;28;20537;-67
2021/11/24 00:38:56;;;;;;;30.02;18.00;;;;;;;5.43;100.00;102901.13;5029157;28;21115;-67
2021/11/24 00:41:24;;;;;;;35.10;18.50;;;;;;;5.42;100.00;102895.81;5026722;28;20131;-67
2021/11/24 00:43:53;;;;;;;32.70;16.95;;;;;;;5.43;100.00;102894.94;5025374;28;20140;-67
2021/11/24 00:46:21;;;;;;;31.20;17.92;;;;;;;5.47;100.00;102895.91;5026779;28;20072;-67
2021/11/24 00:48:50;;;;;;;28.67;16.52;;;;;;;5.47;100.00;102898.56;5023219;28;20047;-69
2021/11/24 00:51:18;;;;;;;30.85;16.60;;;;;;;5.48;100.00;102901.22;5027554;28;20041;-67
2021/11/24 00:53:49;;;;;;;31.92;17.85;;;;;;;5.54;100.00;102897.84;5018930;28;20429;-67
2021/11/24 00:56:17;;;;;;;32.35;18.08;;;;;;;5.52;100.00;102891.63;5024746;28;20061;-67
2021/11/24 00:58:45;;;;;;;36.15;18.67;;;;;;;5.49;100.00;102889.78;5023219;28;20056;-69
2021/11/24 01:01:13;;;;;;;35.03;18.10;;;;;;;5.49;100.00;102880.94;5026216;28;20081;-69
2021/11/24 01:03:41;;;;;;;34.08;17.20;;;;;;;5.49;100.00;102880.94;5029461;28;20528;-69
2021/11/24 01:06:10;;;;;;;30.73;17.45;;;;;;;5.48;100.00;102880.03;5024483;28;20139;-68
2021/11/24 01:08:39;;;;;;;29.48;16.38;;;;;;;5.48;100.00;102885.31;5021985;28;20051;-69
2021/11/24 01:11:07;;;;;;;30.58;15.90;;;;;;;5.44;100.00;102870.25;5025910;28;20056;-68
2021/11/24 01:13:37;;;;;;;35.65;17.23;;;;;;;5.48;100.00;102873.84;5022565;28;20519;-68
2021/11/24 01:16:06;;;;;;;29.15;16.42;;;;;;;5.51;100.00;102874.81;5026171;28;20077;-69
2021/11/24 01:18:34;;;;;;;35.75;18.60;;;;;;;5.54;100.00;102864.28;5027331;28;20076;-69
2021/11/24 01:21:02;;;;;;;31.52;17.75;;;;;;;5.57;100.00;102863.47;5022129;28;20130;-69
2021/11/24 01:23:32;;;;;;;30.85;17.60;;;;;;;5.54;100.00;102855.47;5024927;28;20053;-68
2021/11/24 01:26:00;;;;;;;32.25;18.58;;;;;;;5.52;100.00;102855.41;5023731;28;20148;-68
2021/11/24 01:28:29;;;;;;;34.08;18.38;;;;;;;5.58;100.00;102859.94;5026740;28;20053;-68
2021/11/24 01:30:59;;;;;;;35.13;18.75;;;;;;;5.56;100.00;102851.97;5021839;28;20126;-68
2021/11/24 01:33:28;;;;;;;27.85;17.27;;;;;;;5.55;100.00;102854.56;5028096;28;20167;-69
2021/11/24 01:35:56;;;;;;;35.40;18.58;;;;;;;5.57;100.00;102851.13;5024442;28;20045;-68
2021/11/24 01:38:26;;;;;;;34.55;18.70;;;;;;;5.58;100.00;102857.28;5027874;28;20053;-69
2021/11/24 01:40:56;;;;;;;39.45;19.65;;;;;;;5.57;100.00;102859.06;5027181;28;20057;-68
2021/11/24 01:43:24;;;;;;;34.47;19.38;;;;;;;5.58;100.00;102860.88;5023610;28;20081;-68
2021/11/24 01:45:53;;;;;;;33.10;17.90;;;;;;;5.59;100.00;102857.34;5020630;28;20488;-68
2021/11/24 01:48:26;;;;;;;31.98;18.45;;;;;;;5.61;100.00;102860.91;5027897;28;20080;-68
2021/11/24 01:50:54;;;;;;;37.85;20.33;;;;;;;5.65;100.00;102853.91;5021916;28;20045;-69
2021/11/24 01:53:23;;;;;;;32.97;18.75;;;;;;;5.64;100.00;102856.56;5023996;28;20077;-69
2021/11/24 01:55:52;;;;;;;34.90;19.73;;;;;;;5.66;100.00;102846.88;5023475;28;20135;-67
2021/11/24 01:58:22;;;;;;;39.80;20.25;;;;;;;5.63;100.00;102847.69;5022544;28;20052;-73
2021/11/24 02:00:50;;;;;;;38.33;19.80;;;;;;;5.63;100.00;102844.16;5019814;28;20057;-73
2021/11/24 02:03:19;;;;;;;42.53;19.88;;;;;;;5.64;100.00;102843.31;5024861;28;20088;-73
2021/11/24 02:05:46;;;;;;;32.50;17.60;;;;;;;5.67;100.00;102836.31;5021719;28;20254;-73
2021/11/24 02:08:14;;;;;;;41.25;18.80;;;;;;;5.74;100.00;102843.50;5023455;28;20427;-73
2021/11/24 02:10:43;;;;;;;35.95;19.65;;;;;;;5.80;100.00;102835.66;5023765;28;20053;-68
2021/11/24 02:13:11;;;;;;;42.95;22.45;;;;;;;5.77;100.00;102832.06;5027381;28;20110;-68
2021/11/24 02:15:41;;;;;;;41.45;22.58;;;;;;;5.76;100.00;102827.66;5024421;28;20144;-68
2021/11/24 02:18:10;;;;;;;38.90;19.15;;;;;;;5.75;100.00;102829.38;5014835;28;20077;-68
2021/11/24 02:20:41;;;;;;;38.33;20.90;;;;;;;5.78;100.00;102825.91;5019186;28;20674;-68
2021/11/24 02:23:12;;;;;;;40.03;21.02;;;;;;;5.78;100.00;102817.97;5025761;28;20060;-68
2021/11/24 02:25:43;;;;;;;39.35;20.65;;;;;;;5.82;100.00;102809.22;5019641;28;20053;-68
2021/11/24 02:28:11;;;;;;;41.38;21.88;;;;;;;5.83;100.00;102815.41;5027101;28;20084;-68
2021/11/24 02:30:39;;;;;;;39.40;21.33;;;;;;;5.80;100.00;102803.00;5018947;28;20091;-68
2021/11/24 02:33:07;;;;;;;39.42;20.55;;;;;;;5.79;100.00;102795.94;5030081;28;20469;-68
2021/11/24 02:35:36;;;;;;;35.08;20.10;;;;;;;5.79;100.00;102790.63;5023780;28;20050;-68
2021/11/24 02:38:06;;;;;;;36.35;19.73;;;;;;;5.79;100.00;102790.63;5023589;28;20136;-69
2021/11/24 02:40:35;;;;;;;37.33;19.73;;;;;;;5.76;100.00;102780.84;5022430;28;20136;-68
2021/11/24 02:43:05;;;;;;;37.72;19.55;;;;;;;5.79;100.00;102780.03;5027491;28;20061;-68
2021/11/24 02:45:33;;;;;;;37.13;19.83;;;;;;;5.82;100.00;102779.19;5021027;28;20081;-68
2021/11/24 02:48:01;;;;;;;37.83;20.90;;;;;;;5.81;100.00;102773.00;5026629;28;20049;-68
2021/11/24 02:50:29;;;;;;;37.42;21.52;;;;;;;5.80;100.00;102772.09;5025646;28;20049;-68
2021/11/24 02:52:57;;;;;;;33.83;19.38;;;;;;;5.79;100.00;102762.38;5026513;28;20057;-68
2021/11/24 02:55:26;;;;;;;35.28;20.88;;;;;;;5.93;100.00;102765.25;5029631;28;20139;-68
2021/11/24 02:57:55;;;;;;;33.38;19.60;;;;;;;5.89;100.00;102762.53;5025105;28;20053;-68
2021/11/24 03:00:25;;;;;;;32.97;18.63;;;;;;;5.86;100.00;102763.38;5024066;28;20057;-68
2021/11/24 03:02:56;;;;;;;37.85;20.08;;;;;;;5.85;100.00;102750.97;5025870;28;20224;-68
2021/11/24 03:05:27;;;;;;;39.20;19.42;;;;;;;5.85;100.00;102750.97;5030474;28;20038;-68
2021/11/24 03:07:58;;;;;;;36.67;19.63;;;;;;;5.86;100.00;102755.44;5027904;28;20654;-68
2021/11/24 03:10:29;;;;;;;35.83;19.77;;;;;;;5.83;100.00;102752.72;5029902;28;20045;-68
2021/11/24 03:12:57;;;;;;;36.58;20.35;;;;;;;5.80;100.00;102744.72;5020627;28;20140;-68
2021/11/24 03:15:25;;;;;;;42.83;21.27;;;;;;;5.79;100.00;102748.25;5031539;28;20110;-68
2021/11/24 03:17:53;;;;;;;38.53;20.55;;;;;;;5.80;100.00;102742.94;5029534;28;20374;-68
2021/11/24 03:20:24;;;;;;;47.38;21.60;;;;;;;5.83;100.00;102735.94;5024692;28;20049;-68
2021/11/24 03:22:53;;;;;;;38.70;21.08;;;;;;;5.86;100.00;102736.88;5029284;28;20083;-69
2021/11/24 03:25:21;;;;;;;34.00;20.88;;;;;;;5.88;100.00;102735.16;5026131;28;20168;-68
2021/11/24 03:27:51;;;;;;;39.47;20.30;;;;;;;5.89;100.00;102720.13;5032848;28;20061;-68
2021/11/24 03:30:21;;;;;;;41.63;21.40;;;;;;;5.90;100.00;102719.28;5023335;28;20131;-68
2021/11/24 03:32:50;;;;;;;41.83;21.60;;;;;;;5.91;100.00;102715.78;5029997;28;20053;-68
2021/11/24 03:35:21;;;;;;;36.22;22.05;;;;;;;5.90;100.00;102704.25;5026776;28;20048;-68
2021/11/24 03:37:51;;;;;;;36.42;20.48;;;;;;;5.89;100.00;102710.44;5031286;28;20049;-68
2021/11/24 03:40:22;;;;;;;35.40;19.73;;;;;;;5.89;100.00;102706.88;5022659;28;20128;-68
2021/11/24 03:42:52;;;;;;;39.45;20.73;;;;;;;5.89;100.00;102707.78;5030097;28;20042;-68
2021/11/24 03:45:23;;;;;;;35.13;19.23;;;;;;;5.89;100.00;102701.59;5025374;28;20099;-68
2021/11/24 03:47:51;;;;;;;35.65;19.77;;;;;;;5.87;100.00;102698.91;5027140;28;20057;-68
2021/11/24 03:50:20;;;;;;;39.35;20.83;;;;;;;5.86;100.00;102691.84;5021574;28;20053;-68
2021/11/24 03:52:48;;;;;;;34.33;19.73;;;;;;;5.87;100.00;102693.59;5024832;28;20108;-68
2021/11/24 03:55:19;;;;;;;37.97;20.13;;;;;;;5.91;100.00;102687.50;5023065;28;20052;-68
2021/11/24 03:57:48;;;;;;;35.75;20.48;;;;;;;5.94;100.00;102695.50;5029712;28;20192;-68
2021/11/24 04:00:19;;;;;;;40.92;21.95;;;;;;;5.93;100.00;102693.72;5024526;28;20238;-68
2021/11/24 04:02:47;;;;;;;32.00;19.52;;;;;;;5.94;100.00;102690.22;5027452;28;21077;-68
2021/11/24 04:05:16;;;;;;;33.58;20.35;;;;;;;5.93;100.00;102688.41;5023302;28;20244;-68
2021/11/24 04:07:44;;;;;;;39.03;20.63;;;;;;;5.91;100.00;102686.63;5031277;28;20135;-68
2021/11/24 04:10:13;;;;;;;39.10;20.92;;;;;;;5.91;100.00;102683.97;5024111;28;20045;-68
2021/11/24 04:12:42;;;;;;;36.55;19.30;;;;;;;5.91;100.00;102692.81;5024333;28;20052;-68
2021/11/24 04:15:12;;;;;;;39.83;20.00;;;;;;;5.93;100.00;102685.78;5027482;28;20041;-68
2021/11/24 04:17:42;;;;;;;40.22;21.38;;;;;;;5.93;100.00;102687.53;5027089;28;20061;-68
2021/11/24 04:20:12;;;;;;;34.65;19.92;;;;;;;5.94;100.00;102676.97;5026744;28;20131;-73
2021/11/24 04:22:41;;;;;;;33.35;19.77;;;;;;;5.96;100.00;102666.44;5027225;28;20126;-74
2021/11/24 04:25:10;;;;;;;38.22;20.90;;;;;;;6.01;100.00;102667.41;5030099;28;20080;-74
2021/11/24 04:27:38;;;;;;;41.63;20.67;;;;;;;6.04;100.00;102663.88;5022356;28;20389;-74
2021/11/24 04:30:08;;;;;;;40.55;22.63;;;;;;;6.06;100.00;102659.50;5026382;28;21915;-74
2021/11/24 04:32:36;;;;;;;44.10;22.52;;;;;;;6.02;100.00;102658.56;5025968;28;20754;-74
2021/11/24 04:35:06;;;;;;;42.67;22.85;;;;;;;6.02;100.00;102647.06;5025484;28;20485;-74
2021/11/24 04:37:34;;;;;;;44.13;21.42;;;;;;;6.02;100.00;102645.31;5031676;28;20127;-73
2021/11/24 04:40:03;;;;;;;40.35;20.85;;;;;;;6.05;100.00;102640.06;5024119;28;20505;-72
2021/11/24 04:42:31;;;;;;;40.72;21.27;;;;;;;6.11;100.00;102642.81;5027445;28;20067;-72
2021/11/24 04:44:59;;;;;;;35.75;21.15;;;;;;;6.10;100.00;102642.78;5027439;28;20168;-75
2021/11/24 04:47:27;;;;;;;41.58;23.02;;;;;;;6.06;100.00;102636.56;5028423;28;20068;-72
2021/11/24 04:49:56;;;;;;;40.80;22.23;;;;;;;6.02;100.00;102644.44;5022421;28;20052;-74
2021/11/24 04:52:26;;;;;;;44.67;21.85;;;;;;;5.98;100.00;102632.88;5024686;28;20525;-73
2021/11/24 04:54:55;;;;;;;41.53;19.83;;;;;;;5.98;100.00;102633.78;5021044;28;20152;-73
2021/11/24 04:57:23;;;;;;;42.70;22.25;;;;;;;5.97;100.00;102624.03;5026105;28;20060;-73
2021/11/24 04:59:52;;;;;;;45.60;22.73;;;;;;;5.98;100.00;102641.72;5026000;28;20686;-73
2021/11/24 05:02:20;;;;;;;37.85;21.55;;;;;;;6.00;100.00;102627.63;5026139;28;20068;-74
2021/11/24 05:04:48;;;;;;;46.03;21.35;;;;;;;5.99;100.00;102626.69;5021748;28;20171;-72
2021/11/24 05:07:16;;;;;;;42.55;23.30;;;;;;;6.00;100.00;102630.25;5029276;28;20186;-72
2021/11/24 05:10:03;;;;;;;41.58;20.65;;;;;;;6.02;100.00;102618.81;5026476;28;20144;-73
2021/11/24 05:12:31;;;;;;;42.75;22.25;;;;;;;6.05;100.00;102628.56;5021376;28;20055;-73
2021/11/24 05:15:00;;;;;;;45.25;22.40;;;;;;;6.02;100.00;102616.16;5024298;28;20565;-73
2021/11/24 05:17:30;;;;;;;41.40;22.35;;;;;;;6.01;100.00;102613.47;5022699;28;20050;-73
2021/11/24 05:19:58;;;;;;;42.33;20.58;;;;;;;6.03;100.00;102617.03;5024460;28;20060;-72
2021/11/24 05:22:26;;;;;;;48.75;24.02;;;;;;;6.04;100.00;102616.19;5022838;28;20060;-73
2021/11/24 05:24:55;;;;;;;45.85;23.13;;;;;;;6.03;100.00;102612.66;5026311;28;20044;-74
2021/11/24 05:27:25;;;;;;;44.03;22.05;;;;;;;6.03;100.00;102611.72;5020882;28;20069;-72
2021/11/24 05:29:58;;;;;;;43.83;22.98;;;;;;;6.02;100.00;102612.63;5027881;28;20045;-74
2021/11/24 05:32:27;;;;;;;51.03;24.30;;;;;;;6.02;100.00;102612.63;5027199;28;20057;-73
2021/11/24 05:34:55;;;;;;;45.67;22.35;;;;;;;5.99;100.00;102610.81;5021202;28;20544;-74
2021/11/24 05:37:30;;;;;;;41.45;22.08;;;;;;;5.97;100.00;102610.78;5026194;28;20285;-73
2021/11/24 05:39:58;;;;;;;41.60;19.63;;;;;;;5.97;100.00;102615.19;5022284;28;20060;-73
2021/11/24 05:42:28;;;;;;;45.65;21.23;;;;;;;5.96;100.00;102613.44;5023255;28;20327;-72
2021/11/24 05:45:03;;;;;;;42.22;21.48;;;;;;;5.96;100.00;102619.63;5027493;28;20379;-72
2021/11/24 05:50:40;;;;;;;48.38;24.23;;;;;;;5.96;100.00;102616.09;5004802;28;20060;-72
2021/11/24 05:53:09;;;;;;;44.47;22.77;;;;;;;5.97;100.00;102613.44;5023748;28;20057;-73
2021/11/24 05:55:36;;;;;;;45.53;23.10;;;;;;;6.01;100.00;102608.19;5024967;28;20045;-67
2021/11/24 05:58:06;;;;;;;45.03;21.92;;;;;;;6.00;100.00;102603.75;5024498;28;20053;-67
2021/11/24 06:00:34;;;;;;;45.55;23.35;;;;;;;5.96;100.00;102602.84;5020206;28;20050;-67
2021/11/24 06:03:03;;;;;;;49.72;24.30;;;;;;;5.97;100.00;102600.19;5027263;28;20044;-69
2021/11/24 06:05:31;;;;;;;48.80;24.80;;;;;;;5.98;100.00;102591.38;5020170;28;20060;-67
2021/11/24 06:07:59;;;;;;;46.10;21.90;;;;;;;6.01;100.00;102592.28;5026475;28;20134;-67
2021/11/24 06:10:27;;;;;;;49.10;24.25;;;;;;;5.99;100.00;102581.66;5020161;28;20059;-67
2021/11/24 06:12:55;;;;;;;49.03;25.10;;;;;;;5.97;100.00;102583.41;5022743;28;20637;-68
2021/11/24 06:15:25;;;;;;;51.30;25.40;;;;;;;6.01;100.00;102589.63;5019477;28;20052;-67
2021/11/24 06:17:53;;;;;;;51.33;27.48;;;;;;;5.98;100.00;102583.41;5025989;28;20317;-67
2021/11/24 06:20:21;;;;;;;55.70;27.17;;;;;;;6.01;100.00;102582.59;5019763;28;20751;-67
2021/11/24 06:22:49;;;;;;;58.38;26.92;;;;;;;6.05;100.00;102578.22;5026366;28;20053;-68
2021/11/24 06:25:18;;;;;;;50.30;24.88;;;;;;;6.05;100.00;102570.28;5022549;28;20049;-68
2021/11/24 06:27:46;;;;;;;52.13;26.25;;;;;;;6.05;100.00;102580.88;5024467;28;20307;-67
2021/11/24 06:30:17;;;;;;;53.22;26.63;;;;;;;6.07;100.00;102576.47;5021490;28;20434;-68
2021/11/24 06:32:47;;;;;;;53.80;26.23;;;;;;;6.09;100.00;102574.72;5024036;28;20045;-68
2021/11/24 06:35:16;;;;;;;56.72;27.80;;;;;;;6.09;100.00;102572.97;5020952;28;20061;-67
2021/11/24 06:37:44;;;;;;;56.22;27.85;;;;;;;6.09;100.00;102566.78;5024969;28;20459;-68
2021/11/24 06:40:13;;;;;;;57.05;27.85;;;;;;;6.09;100.00;102556.19;5022430;28;20063;-67
2021/11/24 06:42:41;;;;;;;62.88;29.33;;;;;;;6.11;100.00;102551.78;5026137;28;20080;-67
2021/11/24 06:45:11;;;;;;;62.95;28.35;;;;;;;6.13;100.00;102552.69;5020953;28;20076;-67
2021/11/24 06:47:40;;;;;;;74.60;29.05;;;;;;;6.11;100.00;102562.38;5025233;28;20076;-67
2021/11/24 06:50:12;;;;;;;53.63;28.63;;;;;;;6.09;100.00;102562.38;5020751;28;20056;-68
2021/11/24 06:52:42;;;;;;;67.25;30.15;;;;;;;6.08;100.00;102552.66;5019711;28;20046;-68
2021/11/24 06:55:11;;;;;;;58.13;29.00;;;;;;;6.08;100.00;102554.38;5019725;28;20548;-68
2021/11/24 06:57:39;;;;;;;61.00;27.55;;;;;;;6.09;100.00;102554.41;5026621;28;20382;-67
2021/11/24 07:00:09;;;;;;;59.22;27.52;;;;;;;6.10;100.00;102547.38;5019039;28;20045;-67
2021/11/24 07:02:37;;;;;;;59.53;28.33;;;;;;;6.09;100.00;102553.53;5026530;28;20466;-67
2021/11/24 07:05:06;;;;;;;65.05;29.08;;;;;;;6.09;100.00;102550.88;5022541;28;20128;-68
2021/11/24 07:07:36;;;;;;;58.83;26.17;;;;;;;6.09;100.00;102550.88;5025994;28;20051;-68
2021/11/24 07:10:05;;;;;;;60.47;28.58;;;;;;;6.09;100.00;102545.59;5026576;28;20081;-67
2021/11/24 07:12:33;;;;;;;58.45;30.98;;;;;;;6.13;100.00;102542.09;5018250;28;20772;-68
2021/11/24 07:15:01;;;;;;;60.13;29.63;;;;;;;6.12;100.00;102542.97;5022949;28;20507;-67
2021/11/24 07:17:29;;;;;;;66.90;30.55;;;;;;;6.15;100.00;102548.31;5020939;28;21157;-68
2021/11/24 07:19:57;;;;;;;66.80;32.55;;;;;;;6.15;100.00;102545.69;5020763;28;20527;-68
2021/11/24 07:22:26;;;;;;;60.88;31.25;;;;;;;6.13;100.00;102545.66;5025641;28;20057;-68
2021/11/24 07:24:58;;;;;;;65.45;29.70;;;;;;;6.14;100.00;102551.84;5017443;28;20553;-68
2021/11/24 07:27:27;;;;;;;61.05;29.15;;;;;;;6.14;100.00;102549.19;5024212;28;20076;-68
2021/11/24 07:29:55;;;;;;;58.70;29.42;;;;;;;6.13;100.00;102547.38;5019445;28;20045;-67
2021/11/24 07:32:23;;;;;;;64.95;31.10;;;;;;;6.14;100.00;102549.19;5024918;28;20045;-68
2021/11/24 07:34:51;;;;;;;63.30;31.08;;;;;;;6.15;100.00;102543.91;5023584;28;20520;-68
2021/11/24 07:37:25;;;;;;;62.17;30.23;;;;;;;6.20;100.00;102530.72;5025169;28;20049;-68
2021/11/24 07:39:53;;;;;;;59.25;28.17;;;;;;;6.28;100.00;102537.03;5022623;28;23127;-68
2021/11/24 07:42:23;;;;;;;61.55;30.70;;;;;;;6.25;100.00;102539.63;5025808;28;20061;-68
2021/11/24 07:44:52;;;;;;;56.20;29.63;;;;;;;6.22;100.00;102542.22;5030711;28;20053;-73
2021/11/24 07:47:20;;;;;;;60.65;28.48;;;;;;;6.25;100.00;102538.72;5026607;28;20126;-72
2021/11/24 07:49:48;;;;;;;56.85;27.77;;;;;;;6.23;100.00;102532.50;5028098;28;20368;-73
2021/11/24 07:52:17;;;;;;;59.58;27.05;;;;;;;6.24;100.00;102542.25;5017118;28;20272;-73
2021/11/24 07:54:45;;;;;;;62.47;27.77;;;;;;;6.25;100.00;102529.03;5022021;28;20432;-73
2021/11/24 07:57:13;;;;;;;54.30;27.50;;;;;;;6.28;100.00;102525.50;5025066;28;20139;-73
2021/11/24 07:59:42;;;;;;;59.50;27.90;;;;;;;6.25;100.00;102523.72;5027428;28;21267;-73
2021/11/24 08:02:10;;;;;;;55.83;29.13;;;;;;;6.26;100.00;102532.56;5019723;28;20081;-73
2021/11/24 08:04:39;;;;;;;61.22;28.15;;;;;;;6.27;100.00;102516.66;5027184;28;20056;-73
2021/11/24 08:07:07;;;;;;;56.78;28.02;;;;;;;6.29;100.00;102514.91;5019036;28;20156;-74
2021/11/24 08:09:35;;;;;;;60.60;30.08;;;;;;;6.30;100.00;102518.44;5022176;28;20088;-73
2021/11/24 08:12:03;;;;;;;53.05;28.05;;;;;;;6.31;100.00;102510.53;5020589;28;20165;-74
2021/11/24 08:14:32;;;;;;;65.35;29.98;;;;;;;6.32;100.00;102514.09;5028533;28;20076;-74
2021/11/24 08:17:04;;;;;;;65.90;28.23;;;;;;;6.34;100.00;102505.25;5023062;28;20084;-68
2021/11/24 08:19:32;;;;;;;56.63;28.30;;;;;;;6.35;100.00;102509.69;5029008;28;20492;-69
2021/11/24 08:22:00;;;;;;;55.15;26.92;;;;;;;6.36;100.00;102510.59;5023355;28;20055;-68
2021/11/24 08:24:28;;;;;;;53.67;27.98;;;;;;;6.39;100.00;102507.97;5026179;28;20053;-69
2021/11/24 08:26:58;;;;;;;58.08;29.10;;;;;;;6.39;100.00;102500.03;5019817;28;20650;-68
2021/11/24 08:29:26;;;;;;;56.58;27.17;;;;;;;6.41;100.00;102495.63;5028254;28;20037;-68
2021/11/24 08:31:54;;;;;;;55.28;28.90;;;;;;;6.43;100.00;102503.59;5019199;28;20045;-68
2021/11/24 08:34:25;;;;;;;53.72;28.27;;;;;;;6.43;100.00;102499.16;5025767;28;20045;-68
2021/11/24 08:36:53;;;;;;;62.10;29.48;;;;;;;6.46;100.00;102499.22;5020892;28;20084;-68
2021/11/24 08:39:24;;;;;;;57.67;28.67;;;;;;;6.44;100.00;102493.00;5029135;28;20578;-66
2021/11/24 08:41:53;;;;;;;60.40;30.77;;;;;;;6.49;100.00;102493.06;5022529;28;20478;-67
2021/11/24 08:44:22;;;;;;;47.30;25.45;;;;;;;6.52;100.00;102486.03;5026435;28;20270;-74
2021/11/24 08:46:50;;;;;;;53.38;24.67;;;;;;;6.52;100.00;102479.81;5023169;28;20049;-68
2021/11/24 08:49:18;;;;;;;51.45;24.67;;;;;;;6.57;100.00;102482.53;5026064;28;20073;-68
2021/11/24 08:51:47;;;;;;;45.47;22.98;;;;;;;6.61;100.00;102476.41;5022875;28;20250;-68
2021/11/24 08:54:16;;;;;;;46.55;23.10;;;;;;;6.62;100.00;102473.72;5024884;28;20220;-68
2021/11/24 08:56:43;;;;;;;44.78;22.20;;;;;;;6.66;100.00;102480.00;5020049;28;20085;-67
2021/11/24 08:59:12;;;;;;;47.15;23.30;;;;;;;6.69;100.00;102474.69;5014146;28;20144;-67
2021/11/24 09:01:40;;;;;;;48.40;24.58;;;;;;;6.70;100.00;102474.72;5008671;28;20052;-68
2021/11/24 09:04:09;;;;;;;45.88;24.02;;;;;;;6.69;100.00;102474.69;5014682;28;20053;-68
2021/11/24 09:06:37;;;;;;;44.53;23.75;;;;;;;6.72;100.00;102474.72;4996759;28;20052;-72
2021/11/24 09:09:07;;;;;;;46.92;24.00;;;;;;;6.74;100.00;102472.97;5004933;28;20537;-74
2021/11/24 09:11:35;;;;;;;45.28;21.35;;;;;;;6.74;100.00;102475.63;4999992;28;20073;-73
2021/11/24 09:14:04;;;;;;;45.45;23.98;;;;;;;6.75;100.00;102472.13;5005825;28;20049;-74
2021/11/24 09:16:32;;;;;;;41.63;24.05;;;;;;;6.75;100.00;102469.47;5010187;28;22009;-74
2021/11/24 09:19:00;;;;;;;41.20;20.45;;;;;;;6.73;100.00;102472.09;5023015;28;20128;-73
2021/11/24 09:21:31;;;;;;;40.85;21.83;;;;;;;6.76;100.00;102471.25;5026275;28;20147;-74
2021/11/24 09:24:04;;;;;;;42.30;20.95;;;;;;;6.77;100.00;102472.13;5024662;28;20060;-74
2021/11/24 09:26:41;;;;;;;37.33;20.65;;;;;;;6.78;100.00;102465.97;5019556;28;20137;-73
2021/11/24 09:29:12;;;;;;;36.05;21.73;;;;;;;6.79;100.00;102465.06;5022458;28;20049;-73
2021/11/24 09:31:40;;;;;;;42.72;22.73;;;;;;;6.81;100.00;102455.34;5004709;28;20554;-73
2021/11/24 09:34:09;;;;;;;42.47;20.95;;;;;;;6.81;100.00;102452.69;5023612;28;20053;-74
2021/11/24 09:36:40;;;;;;;41.40;20.98;;;;;;;6.79;100.00;102450.03;5023275;28;20123;-68
2021/11/24 09:39:13;;;;;;;;;;;;;;;6.80;100.00;102457.13;5025112;28;20045;-67
2021/11/24 09:41:45;;;;;;;32.63;18.45;;;;;;;6.82;100.00;102455.38;5024116;28;19966;-68
2021/11/24 09:44:13;;;;;;;37.33;19.83;;;;;;;6.83;100.00;102445.66;5023637;28;20060;-68
2021/11/24 09:46:45;;;;;;;36.17;18.45;;;;;;;6.85;100.00;102446.56;5021728;28;20045;-73
2021/11/24 09:49:14;;;;;;;38.30;17.67;;;;;;;6.82;100.00;102439.44;5021681;28;20048;-74
2021/11/24 09:51:43;;;;;;;32.97;17.25;;;;;;;6.84;100.00;102436.81;5024738;28;20128;-73
2021/11/24 09:54:13;;;;;;;32.47;17.42;;;;;;;6.85;100.00;102439.47;5018131;28;20105;-74
2021/11/24 09:56:45;;;;;;;29.67;17.40;;;;;;;6.84;100.00;102439.47;5019632;28;20297;-73
2021/11/24 09:59:21;;;;;;;31.50;17.33;;;;;;;6.81;100.00;102436.78;5028990;28;20287;-73
2021/11/24 10:01:49;;;;;;;32.75;17.85;;;;;;;6.83;100.00;102445.66;5020692;28;20057;-73
2021/11/24 10:04:22;;;;;;;32.00;18.38;;;;;;;6.82;100.00;102434.13;5026798;28;20059;-74
2021/11/24 10:06:51;;;;;;;32.20;16.70;;;;;;;6.81;100.00;102432.38;5017932;28;20057;-72
2021/11/24 10:09:19;;;;;;;31.15;18.17;;;;;;;6.82;100.00;102436.78;5026563;28;20099;-73
2021/11/24 10:11:48;;;;;;;32.50;18.20;;;;;;;6.85;100.00;102436.81;5017786;28;20057;-73
2021/11/24 10:14:16;;;;;;;33.08;17.13;;;;;;;6.86;100.00;102430.66;5028444;28;20107;-73
2021/11/24 10:16:44;;;;;;;28.73;16.60;;;;;;;6.92;100.00;102430.69;5023399;28;20049;-73
2021/11/24 10:19:14;;;;;;;33.05;16.75;;;;;;;6.93;100.00;102426.28;5024434;28;20053;-73
2021/11/24 10:22:01;;;;;;;29.67;15.63;;;;;;;6.92;100.00;102416.53;5024089;28;20533;-74
2021/11/24 10:24:34;;;;;;;29.48;15.10;;;;;;;6.92;100.00;102417.41;5027806;28;20057;-73
2021/11/24 10:27:07;;;;;;;31.13;15.98;;;;;;;6.95;100.00;102411.25;5017249;28;20524;-73
2021/11/24 10:29:40;;;;;;;27.45;15.13;;;;;;;6.94;100.00;102404.16;5025345;28;20060;-73
2021/11/24 10:32:12;;;;;;;29.20;15.05;;;;;;;7.00;100.00;102398.91;5026356;28;20111;-74
2021/11/24 10:34:42;;;;;;;29.35;17.02;;;;;;;6.98;100.00;102392.72;5024430;28;20048;-74
2021/11/24 10:37:12;;;;;;;27.80;15.25;;;;;;;6.96;100.00;102386.47;5016221;28;20126;-73
2021/11/24 10:39:44;;;;;;;24.13;14.75;;;;;;;7.02;100.00;102385.66;5020024;28;20049;-74
2021/11/24 10:42:16;;;;;;;30.08;14.80;;;;;;;7.01;100.00;102376.78;5016712;28;20496;-74
2021/11/24 10:44:45;;;;;;;24.83;13.48;;;;;;;7.02;100.00;102375.03;5014954;28;20272;-74
2021/11/24 10:47:14;;;;;;;26.92;14.13;;;;;;;7.04;100.00;102379.47;5015559;28;20583;-74
2021/11/24 10:49:44;;;;;;;24.52;13.95;;;;;;;7.00;100.00;102371.47;5020735;28;20451;-74
2021/11/24 10:52:21;;;;;;;22.60;11.95;;;;;;;7.07;100.00;102365.34;5011789;28;20486;-74
2021/11/24 10:55:01;;;;;;;26.35;13.98;;;;;;;7.06;100.00;102358.25;5025005;28;20178;-74
2021/11/24 10:57:32;;;;;;;17.48;11.65;;;;;;;7.07;100.00;102363.56;5017030;28;20130;-74
2021/11/24 11:00:06;;;;;;;23.40;12.32;;;;;;;7.05;100.00;102346.75;5024454;28;20148;-74
2021/11/24 11:02:36;;;;;;;19.60;11.68;;;;;;;7.08;100.00;102341.47;5011444;28;20061;-73
2021/11/24 11:05:12;;;;;;;20.30;10.35;;;;;;;7.09;100.00;102340.56;5017993;28;20041;-73
2021/11/24 11:07:43;;;;;;;19.98;11.23;;;;;;;7.07;100.00;102333.50;5018638;28;20057;-74
2021/11/24 11:10:17;;;;;;;21.52;11.60;;;;;;;7.08;100.00;102332.59;5018237;28;20056;-74
2021/11/24 11:12:48;;;;;;;19.77;11.07;;;;;;;7.15;100.00;102321.16;5020606;28;20429;-74
2021/11/24 11:15:28;;;;;;;19.17;10.63;;;;;;;7.10;100.00;102307.84;5028026;28;20311;-74
2021/11/24 11:18:11;;;;;;;25.15;11.35;;;;;;;7.15;100.00;102305.25;5027140;28;20049;-73
2021/11/24 11:20:43;;;;;;;17.20;10.82;;;;;;;7.17;100.00;102294.59;5029683;28;20171;-73
2021/11/24 11:23:17;;;;;;;22.33;11.55;;;;;;;7.19;100.00;102290.22;5022792;28;20046;-74